createdAt,value
2019-01-31T00:02:39.192Z,4.73
2019-01-31T00:05:16.437Z,4.97
2019-01-31T00:08:05.649Z,7.10
2019-01-31T00:10:45.933Z,7.90
2019-01-31T00:13:26.118Z,4.57
2019-01-31T00:16:03.525Z,5.33
2019-01-31T00:18:40.761Z,4.33
2019-01-31T00:21:24.098Z,4.63
2019-01-31T00:23:58.348Z,5.23
2019-01-31T00:26:54.030Z,5.37
2019-01-31T00:29:43.279Z,6.60
2019-01-31T00:32:20.305Z,3.80
2019-01-31T00:35:03.889Z,6.17
2019-01-31T00:37:46.952Z,4.20
2019-01-31T00:40:33.132Z,7.43
2019-01-31T00:43:13.173Z,8.30
2019-01-31T00:45:50.626Z,4.77
2019-01-31T00:48:24.956Z,5.37
2019-01-31T00:51:05.231Z,5.27
2019-01-31T00:53:58.488Z,6.67
2019-01-31T00:56:50.317Z,7.23
2019-01-31T00:59:33.851Z,6.23
2019-01-31T01:02:17.331Z,8.53
2019-01-31T01:05:05.286Z,6.33
2019-01-31T01:07:54.209Z,6.70
2019-01-31T01:10:40.478Z,10.67
2019-01-31T01:13:41.955Z,5.07
2019-01-31T01:16:16.037Z,6.20
2019-01-31T01:18:56.106Z,5.90
2019-01-31T01:21:45.645Z,4.50
2019-01-31T01:24:19.700Z,4.77
2019-01-31T01:26:51.146Z,8.97
2019-01-31T01:29:31.214Z,6.43
2019-01-31T01:32:15.612Z,4.80
2019-01-31T01:35:11.333Z,4.40
2019-01-31T01:37:48.543Z,6.87
2019-01-31T01:40:38.106Z,9.87
2019-01-31T01:43:12.496Z,7.23
2019-01-31T01:45:52.631Z,7.80
2019-01-31T01:48:36.154Z,7.23
2019-01-31T01:51:10.310Z,6.60
2019-01-31T01:53:47.321Z,6.60
2019-01-31T01:56:36.984Z,5.37
2019-01-31T01:59:10.980Z,3.87
2019-01-31T02:02:18.956Z,3.60
2019-01-31T02:05:09.564Z,4.73
2019-01-31T02:07:46.729Z,3.80
2019-01-31T02:10:23.782Z,4.50
2019-01-31T02:13:22.386Z,8.53
2019-01-31T02:15:56.596Z,8.73
2019-01-31T02:18:30.705Z,9.00
2019-01-31T02:21:07.715Z,7.63
2019-01-31T02:23:57.054Z,3.17
2019-01-31T02:27:01.903Z,3.87
2019-01-31T02:29:39.075Z,4.70
2019-01-31T02:32:29.855Z,3.60
2019-01-31T02:35:31.722Z,4.83
2019-01-31T02:38:19.642Z,4.93
2019-01-31T02:41:11.658Z,3.97
2019-01-31T02:44:01.259Z,4.13
2019-01-31T02:46:35.156Z,3.53
2019-01-31T02:49:23.202Z,3.70
2019-01-31T02:51:57.430Z,3.57
2019-01-31T02:54:37.763Z,3.53
2019-01-31T02:57:12.071Z,4.87
2019-01-31T03:00:01.790Z,5.27
2019-01-31T03:02:45.241Z,7.13
2019-01-31T03:05:37.647Z,4.50
2019-01-31T03:08:26.972Z,5.80
2019-01-31T03:11:07.341Z,3.50
2019-01-31T03:13:38.806Z,7.47
2019-01-31T03:16:13.027Z,5.93
2019-01-31T03:19:16.545Z,5.20
2019-01-31T03:22:22.522Z,3.70
2019-01-31T03:25:14.858Z,4.10
2019-01-31T03:27:55.555Z,4.63
2019-01-31T03:30:39.096Z,5.33
2019-01-31T03:33:16.286Z,5.27
2019-01-31T03:36:05.561Z,5.00
2019-01-31T03:38:48.970Z,3.30
2019-01-31T03:41:20.427Z,8.13
2019-01-31T03:44:03.937Z,2.97
2019-01-31T03:46:46.656Z,4.13
2019-01-31T03:49:18.098Z,4.27
2019-01-31T03:51:55.491Z,4.50
2019-01-31T03:54:50.872Z,3.60
2019-01-31T03:57:22.319Z,3.33
2019-01-31T03:59:53.755Z,3.43
2019-01-31T04:02:28.058Z,5.80
2019-01-31T04:05:14.279Z,3.60
2019-01-31T04:07:42.575Z,3.27
2019-01-31T04:10:18.731Z,3.40
2019-01-31T04:12:40.915Z,7.80
2019-01-31T04:15:10.475Z,6.27
2019-01-31T04:17:38.772Z,4.83
2019-01-31T04:20:07.887Z,3.60
2019-01-31T04:22:36.221Z,3.97
2019-01-31T04:25:05.230Z,3.80
2019-01-31T04:27:33.504Z,4.17
2019-01-31T04:30:01.909Z,5.00
2019-01-31T04:32:30.220Z,5.23
2019-01-31T04:34:58.473Z,4.03
2019-01-31T04:37:26.745Z,9.33
2019-01-31T04:39:54.994Z,3.20
2019-01-31T04:42:23.239Z,2.97
2019-01-31T04:44:51.508Z,2.63
2019-01-31T04:47:19.760Z,3.80
2019-01-31T04:49:48.028Z,2.53
2019-01-31T04:52:16.596Z,3.47
2019-01-31T04:54:44.865Z,2.03
2019-01-31T04:57:13.138Z,2.13
2019-01-31T04:59:41.389Z,3.50
2019-01-31T05:02:09.956Z,3.40
2019-01-31T05:04:38.225Z,3.03
2019-01-31T05:07:06.510Z,2.47
2019-01-31T05:09:34.787Z,3.40
2019-01-31T05:12:03.101Z,4.07
2019-01-31T05:14:31.371Z,5.43
2019-01-31T05:16:59.622Z,10.93
2019-01-31T05:19:27.942Z,10.00
2019-01-31T05:21:56.208Z,11.23
2019-01-31T05:24:24.495Z,8.53
2019-01-31T05:26:52.757Z,8.90
2019-01-31T05:29:21.020Z,7.37
2019-01-31T05:31:49.406Z,7.53
2019-01-31T05:34:17.661Z,7.07
2019-01-31T05:36:45.933Z,6.03
2019-01-31T05:39:14.206Z,4.23
2019-01-31T05:41:42.454Z,5.30
2019-01-31T05:44:10.721Z,3.43
2019-01-31T05:46:39.118Z,4.20
2019-01-31T05:49:07.391Z,4.20
2019-01-31T05:51:35.652Z,6.17
2019-01-31T05:54:04.031Z,3.50
2019-01-31T05:56:32.300Z,6.00
2019-01-31T05:59:00.675Z,3.00
2019-01-31T06:01:28.924Z,7.63
2019-01-31T06:03:57.186Z,3.77
2019-01-31T06:06:25.460Z,5.00
2019-01-31T06:08:53.718Z,3.50
2019-01-31T06:11:21.979Z,4.50
2019-01-31T06:13:50.317Z,3.17
2019-01-31T06:16:18.687Z,4.30
2019-01-31T06:18:46.938Z,4.10
2019-01-31T06:21:15.200Z,4.17
2019-01-31T06:23:43.472Z,4.50
2019-01-31T06:26:11.737Z,4.13
2019-01-31T06:28:40.035Z,4.20
2019-01-31T06:31:08.360Z,5.10
2019-01-31T06:33:36.607Z,3.90
2019-01-31T06:36:04.971Z,5.07
2019-01-31T06:38:33.945Z,4.93
2019-01-31T06:41:02.214Z,3.57
2019-01-31T06:43:30.478Z,4.27
2019-01-31T06:45:58.733Z,7.00
2019-01-31T06:48:27.021Z,6.17
2019-01-31T06:50:55.323Z,6.83
2019-01-31T06:53:23.613Z,5.90
2019-01-31T06:55:51.952Z,6.70
2019-01-31T06:58:20.217Z,4.73
2019-01-31T07:00:48.463Z,4.03
2019-01-31T07:03:16.748Z,5.77
2019-01-31T07:05:45.064Z,9.50
2019-01-31T07:08:13.297Z,6.30
2019-01-31T07:10:41.562Z,8.03
2019-01-31T07:13:09.836Z,6.40
2019-01-31T07:15:38.131Z,4.70
2019-01-31T07:18:07.212Z,5.23
2019-01-31T07:20:35.488Z,6.17
2019-01-31T07:23:03.748Z,5.37
2019-01-31T07:25:32.002Z,10.13
2019-01-31T07:28:00.281Z,5.40
2019-01-31T07:30:28.707Z,6.30
2019-01-31T07:32:56.964Z,4.23
2019-01-31T07:35:25.339Z,9.07
2019-01-31T07:37:53.597Z,6.37
2019-01-31T07:40:22.867Z,5.60
2019-01-31T07:42:51.219Z,4.73
2019-01-31T07:45:30.800Z,4.90
2019-01-31T07:47:59.075Z,5.27
2019-01-31T07:50:27.420Z,5.50
2019-01-31T07:52:55.945Z,9.43
2019-01-31T07:55:24.563Z,7.27
2019-01-31T07:57:53.170Z,4.30
2019-01-31T08:00:25.757Z,3.70
2019-01-31T08:02:54.014Z,3.60
2019-01-31T08:05:23.533Z,3.83
2019-01-31T08:07:56.471Z,4.00
2019-01-31T08:10:30.788Z,4.53
2019-01-31T08:12:59.128Z,6.73
2019-01-31T08:15:27.389Z,3.80
2019-01-31T08:17:55.655Z,4.03
2019-01-31T08:20:24.050Z,4.73
2019-01-31T08:22:52.400Z,3.73
2019-01-31T08:25:25.118Z,4.63
2019-01-31T08:27:54.639Z,5.00
2019-01-31T08:30:37.621Z,2.87
2019-01-31T08:33:05.103Z,4.63
2019-01-31T08:35:33.649Z,4.50
2019-01-31T08:38:01.981Z,3.73
2019-01-31T08:40:30.328Z,3.10
2019-01-31T08:42:58.573Z,6.10
2019-01-31T08:45:26.909Z,5.50
2019-01-31T08:47:55.414Z,5.33
2019-01-31T08:50:29.168Z,3.10
2019-01-31T08:52:57.591Z,2.93
2019-01-31T08:55:26.095Z,4.40
2019-01-31T08:57:54.441Z,4.20
2019-01-31T09:00:25.774Z,5.27
2019-01-31T09:02:54.136Z,4.97
2019-01-31T09:05:22.374Z,3.77
2019-01-31T09:07:50.830Z,3.60
2019-01-31T09:10:34.052Z,3.40
2019-01-31T09:13:03.979Z,6.00
2019-01-31T09:15:32.266Z,3.70
2019-01-31T09:18:00.521Z,3.07
2019-01-31T09:20:37.612Z,3.10
2019-01-31T09:23:14.242Z,3.20
2019-01-31T09:26:00.799Z,3.37
2019-01-31T09:28:40.946Z,3.30
2019-01-31T09:31:15.144Z,5.03
2019-01-31T09:33:55.703Z,3.87
2019-01-31T09:36:36.282Z,6.10
2019-01-31T09:39:19.708Z,3.87
2019-01-31T09:42:10.566Z,5.20
2019-01-31T09:44:47.856Z,5.40
2019-01-31T09:47:46.786Z,8.90
2019-01-31T09:50:51.668Z,4.30
2019-01-31T09:53:35.174Z,3.60
2019-01-31T09:56:12.661Z,4.33
2019-01-31T09:59:08.146Z,6.07
2019-01-31T10:01:56.334Z,5.30
2019-01-31T10:04:51.461Z,3.00
2019-01-31T10:07:28.770Z,2.63
2019-01-31T10:10:33.413Z,2.77
2019-01-31T10:13:16.627Z,2.80
2019-01-31T10:15:51.058Z,2.67
2019-01-31T10:18:25.544Z,2.83
2019-01-31T10:21:18.064Z,2.90
2019-01-31T10:23:54.990Z,3.03
2019-01-31T10:26:49.958Z,4.37
2019-01-31T10:29:36.181Z,3.90
2019-01-31T10:32:07.631Z,3.23
2019-01-31T10:34:48.218Z,3.67
2019-01-31T10:37:19.682Z,3.47
2019-01-31T10:40:02.611Z,4.30
2019-01-31T10:42:50.440Z,4.70
2019-01-31T10:45:37.211Z,3.03
2019-01-31T10:48:25.062Z,3.37
2019-01-31T10:51:05.308Z,4.33
2019-01-31T10:53:45.972Z,4.53
2019-01-31T10:56:20.453Z,4.40
2019-01-31T10:58:51.916Z,4.47
2019-01-31T11:01:38.728Z,4.97
2019-01-31T11:04:25.469Z,4.07
2019-01-31T11:07:15.228Z,5.40
2019-01-31T11:09:49.443Z,4.83
2019-01-31T11:12:29.998Z,4.80
2019-01-31T11:15:07.129Z,5.03
2019-01-31T11:17:44.496Z,5.60
2019-01-31T11:20:49.050Z,6.10
2019-01-31T11:23:26.522Z,4.97
2019-01-31T11:26:04.028Z,5.57
2019-01-31T11:28:47.376Z,5.30
2019-01-31T11:31:21.737Z,6.00
2019-01-31T11:33:56.075Z,5.10
2019-01-31T11:36:42.301Z,5.23
2019-01-31T11:39:20.986Z,7.47
2019-01-31T11:41:52.444Z,7.07
2019-01-31T11:44:57.105Z,6.87
2019-01-31T11:47:54.132Z,6.30
2019-01-31T11:50:37.206Z,6.23
2019-01-31T11:53:23.731Z,6.47
2019-01-31T11:56:03.687Z,6.60
2019-01-31T11:58:53.084Z,6.50
2019-01-31T12:01:21.407Z,6.63
2019-01-31T12:03:49.749Z,8.80
2019-01-31T12:06:18.122Z,7.07
2019-01-31T12:08:46.455Z,8.40
2019-01-31T12:11:14.746Z,7.50
2019-01-31T12:13:43.127Z,7.07
2019-01-31T12:16:11.458Z,7.00
2019-01-31T12:18:39.738Z,6.67
2019-01-31T12:21:08.181Z,7.70
2019-01-31T12:23:36.466Z,8.50
2019-01-31T12:26:05.172Z,7.87
2019-01-31T12:28:33.457Z,8.00
2019-01-31T12:31:01.754Z,8.03
2019-01-31T12:33:30.997Z,9.10
2019-01-31T12:35:59.417Z,11.87
2019-01-31T12:38:36.432Z,9.33
2019-01-31T12:40:57.877Z,9.13
2019-01-31T12:43:34.754Z,9.77
2019-01-31T12:45:56.120Z,8.83
2019-01-31T12:48:24.486Z,9.43
2019-01-31T12:50:52.795Z,8.47
2019-01-31T12:53:21.097Z,9.03
2019-01-31T12:55:49.382Z,8.70
2019-01-31T12:58:17.756Z,8.63
2019-01-31T13:00:46.002Z,8.70
2019-01-31T13:03:14.245Z,10.00
2019-01-31T13:05:42.829Z,8.93
2019-01-31T13:08:11.069Z,8.80
2019-01-31T13:10:39.390Z,7.87
2019-01-31T13:13:07.921Z,8.90
2019-01-31T13:15:36.172Z,8.23
2019-01-31T13:18:05.240Z,11.67
2019-01-31T13:20:33.512Z,7.80
2019-01-31T13:23:01.868Z,7.63
2019-01-31T13:25:30.186Z,8.50
2019-01-31T13:27:58.456Z,8.97
2019-01-31T13:30:26.809Z,8.40
2019-01-31T13:32:56.402Z,9.87
2019-01-31T13:35:24.714Z,9.47
2019-01-31T13:37:53.083Z,10.03
2019-01-31T13:40:23.345Z,11.17
2019-01-31T13:42:52.427Z,10.40
2019-01-31T13:45:29.213Z,10.73
2019-01-31T13:47:59.573Z,10.77
2019-01-31T13:50:27.871Z,10.23
2019-01-31T13:52:56.139Z,10.90
2019-01-31T13:55:27.159Z,10.87
2019-01-31T13:57:55.481Z,9.43
2019-01-31T14:00:24.486Z,9.17
2019-01-31T14:02:53.133Z,15.10
2019-01-31T14:05:21.475Z,9.50
2019-01-31T14:07:49.914Z,8.50
2019-01-31T14:10:21.325Z,8.93
2019-01-31T14:12:49.648Z,9.93
2019-01-31T14:15:34.005Z,9.80
2019-01-31T14:18:02.450Z,20.43
2019-01-31T14:20:30.876Z,12.93
2019-01-31T14:22:59.131Z,9.90
2019-01-31T14:25:27.397Z,11.37
2019-01-31T14:27:55.748Z,11.43
2019-01-31T14:30:29.938Z,9.70
2019-01-31T14:32:58.890Z,10.20
2019-01-31T14:35:28.103Z,11.17
2019-01-31T14:37:56.468Z,12.10
2019-01-31T14:40:25.010Z,11.73
2019-01-31T14:42:53.457Z,11.77
2019-01-31T14:45:21.862Z,11.80
2019-01-31T14:47:50.198Z,12.50
2019-01-31T14:50:24.677Z,12.30
2019-01-31T14:52:53.011Z,15.33
2019-01-31T14:55:21.827Z,11.80
2019-01-31T14:57:50.189Z,12.93
2019-01-31T15:00:23.588Z,8.73
2019-01-31T15:02:52.010Z,8.83
2019-01-31T15:05:20.721Z,8.90
2019-01-31T15:07:49.230Z,11.00
2019-01-31T15:10:19.969Z,6.87
2019-01-31T15:12:48.311Z,8.00
2019-01-31T15:15:17.307Z,6.93
2019-01-31T15:17:45.674Z,7.47
2019-01-31T15:20:37.665Z,7.20
2019-01-31T15:22:58.856Z,7.63
2019-01-31T15:25:27.213Z,7.10
2019-01-31T15:27:55.528Z,7.87
2019-01-31T15:30:29.840Z,7.83
2019-01-31T15:32:58.827Z,7.83
2019-01-31T15:35:27.318Z,6.90
2019-01-31T15:37:55.595Z,7.37
2019-01-31T15:40:34.021Z,8.37
2019-01-31T15:43:02.290Z,7.40
2019-01-31T15:45:30.653Z,7.70
2019-01-31T15:47:58.988Z,7.70
2019-01-31T15:50:27.351Z,8.00
2019-01-31T15:52:55.800Z,7.53
2019-01-31T15:55:26.406Z,5.67
2019-01-31T15:57:54.689Z,6.60
2019-01-31T16:00:33.574Z,7.23
2019-01-31T16:03:08.242Z,5.87
2019-01-31T16:05:41.467Z,5.40
2019-01-31T16:08:11.837Z,7.30
2019-01-31T16:10:40.297Z,6.60
2019-01-31T16:13:08.715Z,8.10
2019-01-31T16:15:37.195Z,7.30
2019-01-31T16:18:07.067Z,7.30
2019-01-31T16:20:38.778Z,7.13
2019-01-31T16:23:12.098Z,5.20
2019-01-31T16:25:40.651Z,5.83
2019-01-31T16:28:09.258Z,5.60
2019-01-31T16:30:37.730Z,5.27
2019-01-31T16:33:06.111Z,5.87
2019-01-31T16:35:36.252Z,5.90
2019-01-31T16:38:04.974Z,6.10
2019-01-31T16:40:33.288Z,5.70
2019-01-31T16:43:01.761Z,5.00
2019-01-31T16:45:30.511Z,5.17
2019-01-31T16:47:59.775Z,5.37
2019-01-31T16:50:28.202Z,5.70
2019-01-31T16:52:56.608Z,7.27
2019-01-31T16:55:29.807Z,5.70
2019-01-31T16:57:58.630Z,5.70
2019-01-31T17:00:31.685Z,6.23
2019-01-31T17:03:00.147Z,5.43
2019-01-31T17:05:32.899Z,5.90
2019-01-31T17:08:01.615Z,6.40
2019-01-31T17:10:30.332Z,6.33
2019-01-31T17:12:58.679Z,9.40
2019-01-31T17:15:27.311Z,11.23
2019-01-31T17:17:56.015Z,6.20
2019-01-31T17:20:30.006Z,6.40
2019-01-31T17:22:58.269Z,7.27
2019-01-31T17:25:26.791Z,6.67
2019-01-31T17:27:55.138Z,6.40
2019-01-31T17:30:25.599Z,6.83
2019-01-31T17:32:54.335Z,7.57
2019-01-31T17:35:22.742Z,7.30
2019-01-31T17:37:51.111Z,9.73
2019-01-31T17:40:25.234Z,9.13
2019-01-31T17:42:53.503Z,10.10
2019-01-31T17:45:29.885Z,7.57
2019-01-31T17:47:52.498Z,8.70
2019-01-31T17:50:21.243Z,9.77
2019-01-31T17:52:49.505Z,7.80
2019-01-31T17:55:19.931Z,8.23
2019-01-31T17:57:48.199Z,7.90
2019-01-31T18:00:32.735Z,8.20
2019-01-31T18:03:01.103Z,7.57
2019-01-31T18:05:29.389Z,8.17
2019-01-31T18:07:57.668Z,7.83
2019-01-31T18:10:26.125Z,8.47
2019-01-31T18:12:54.381Z,8.10
2019-01-31T18:15:22.827Z,8.10
2019-01-31T18:17:51.105Z,7.33
2019-01-31T18:20:20.911Z,8.00
2019-01-31T18:22:49.162Z,8.23
2019-01-31T18:25:17.546Z,7.77
2019-01-31T18:27:45.835Z,10.27
2019-01-31T18:30:19.902Z,9.70
2019-01-31T18:32:48.175Z,8.43
2019-01-31T18:35:16.529Z,7.23
2019-01-31T18:37:44.810Z,7.67
2019-01-31T18:40:21.454Z,8.23
2019-01-31T18:42:49.877Z,7.73
2019-01-31T18:45:21.159Z,7.23
2019-01-31T18:47:49.690Z,6.37
2019-01-31T18:50:26.194Z,8.50
2019-01-31T18:52:54.587Z,7.47
2019-01-31T18:55:23.027Z,6.50
2019-01-31T18:57:52.161Z,6.83
2019-01-31T19:00:25.898Z,7.80
2019-01-31T19:02:54.581Z,7.17
2019-01-31T19:05:23.261Z,7.10
2019-01-31T19:07:51.739Z,7.43
2019-01-31T19:10:20.023Z,6.80
2019-01-31T19:12:48.580Z,6.90
2019-01-31T19:15:19.863Z,7.70
2019-01-31T19:17:48.207Z,8.27
2019-01-31T19:20:22.195Z,7.37
2019-01-31T19:22:51.018Z,8.53
2019-01-31T19:25:19.477Z,9.00
2019-01-31T19:27:47.749Z,8.33
2019-01-31T19:30:22.061Z,7.87
2019-01-31T19:32:50.413Z,9.77
2019-01-31T19:35:18.752Z,8.93
2019-01-31T19:37:47.045Z,8.43
2019-01-31T19:40:18.745Z,8.70
2019-01-31T19:42:47.092Z,7.97
2019-01-31T19:45:21.061Z,8.43
2019-01-31T19:47:49.381Z,8.40
2019-01-31T19:50:18.683Z,8.53
2019-01-31T19:52:47.043Z,8.63
2019-01-31T19:55:15.309Z,9.33
2019-01-31T19:57:43.556Z,7.97
2019-01-31T20:00:19.058Z,8.97
2019-01-31T20:02:47.377Z,9.20
2019-01-31T20:05:16.476Z,8.40
2019-01-31T20:07:45.206Z,7.97
2019-01-31T20:10:21.800Z,9.50
2019-01-31T20:12:50.130Z,8.17
2019-01-31T20:15:18.527Z,9.30
2019-01-31T20:17:47.540Z,7.27
2019-01-31T20:20:27.997Z,7.50
2019-01-31T20:22:57.004Z,8.33
2019-01-31T20:25:25.714Z,8.30
2019-01-31T20:27:54.064Z,7.63
2019-01-31T20:30:28.325Z,7.73
2019-01-31T20:32:57.013Z,7.30
2019-01-31T20:35:25.388Z,7.70
2019-01-31T20:37:53.948Z,7.73
2019-01-31T20:40:30.574Z,6.97
2019-01-31T20:42:58.916Z,7.17
2019-01-31T20:45:27.633Z,7.00
2019-01-31T20:47:55.956Z,6.73
2019-01-31T20:50:26.915Z,6.83
2019-01-31T20:52:55.617Z,6.90
2019-01-31T20:55:23.956Z,6.90
2019-01-31T20:57:52.288Z,6.33
2019-01-31T21:00:35.349Z,6.30
2019-01-31T21:03:05.577Z,6.00
2019-01-31T21:05:34.261Z,7.50
2019-01-31T21:08:02.544Z,6.60
2019-01-31T21:10:30.888Z,7.47
2019-01-31T21:12:59.158Z,6.80
2019-01-31T21:15:27.439Z,5.97
2019-01-31T21:17:55.785Z,6.57
2019-01-31T21:20:26.570Z,6.97
2019-01-31T21:22:55.402Z,7.53
2019-01-31T21:25:23.972Z,6.60
2019-01-31T21:27:52.778Z,7.90
2019-01-31T21:30:24.246Z,7.30
2019-01-31T21:32:52.479Z,7.10
2019-01-31T21:35:21.596Z,7.23
2019-01-31T21:37:50.045Z,7.60
2019-01-31T21:40:20.546Z,6.97
2019-01-31T21:42:48.834Z,6.60
2019-01-31T21:45:21.812Z,7.80
2019-01-31T21:47:50.029Z,6.40
2019-01-31T21:50:21.019Z,6.43
2019-01-31T21:52:49.294Z,7.40
2019-01-31T21:55:19.087Z,7.73
2019-01-31T21:57:47.515Z,6.23
2019-01-31T22:00:27.607Z,7.30
2019-01-31T22:02:55.970Z,6.90
2019-01-31T22:05:24.334Z,7.70
2019-01-31T22:07:52.626Z,9.63
2019-01-31T22:10:21.038Z,7.50
2019-01-31T22:12:49.345Z,7.13
2019-01-31T22:15:23.455Z,7.20
2019-01-31T22:17:51.705Z,6.70
2019-01-31T22:20:20.009Z,7.53
2019-01-31T22:22:48.247Z,7.63
2019-01-31T22:25:18.669Z,6.80
2019-01-31T22:27:47.167Z,7.20
2019-01-31T22:30:21.144Z,7.40
2019-01-31T22:32:49.384Z,7.23
2019-01-31T22:35:17.737Z,7.03
2019-01-31T22:37:46.098Z,7.57
2019-01-31T22:40:16.102Z,7.03
2019-01-31T22:42:44.424Z,7.43
2019-01-31T22:45:15.963Z,8.53
2019-01-31T22:47:44.382Z,8.93
2019-01-31T22:50:15.777Z,7.63
2019-01-31T22:52:44.051Z,7.60
2019-01-31T22:55:14.970Z,7.30
2019-01-31T22:57:43.683Z,8.33
2019-01-31T23:00:21.535Z,7.60
2019-01-31T23:02:49.803Z,8.20
2019-01-31T23:05:18.149Z,7.10
2019-01-31T23:07:46.416Z,8.40
2019-01-31T23:10:14.765Z,8.00
2019-01-31T23:12:43.035Z,8.77
2019-01-31T23:15:11.631Z,9.20
2019-01-31T23:17:39.920Z,14.40
2019-01-31T23:20:17.293Z,9.30
2019-01-31T23:22:45.610Z,8.40
2019-01-31T23:25:14.071Z,8.50
2019-01-31T23:27:42.363Z,8.60
2019-01-31T23:30:15.577Z,8.53
2019-01-31T23:32:44.098Z,9.03
2019-01-31T23:35:12.695Z,9.73
2019-01-31T23:37:40.953Z,8.20
2019-01-31T23:40:11.084Z,8.73
2019-01-31T23:42:39.330Z,7.53
2019-01-31T23:45:16.510Z,7.13
2019-01-31T23:47:48.795Z,7.40
2019-01-31T23:50:14.875Z,9.23
2019-01-31T23:52:43.130Z,8.07
2019-01-31T23:55:16.154Z,9.33
2019-01-31T23:57:44.551Z,8.07
